• Join FlightAware (Why Join?)
  • Login
  • US Flag 
04:57AM EDT


 

Airport Tracker/Info


-or-


 

Live Flight TrackerFlight Track Log ✈ THY2469 ✈ 25-07-2013 ✈ LTAF / ADA - LTBA / IST

Flight Track Log - Related Links

Times and Time Zones

All times are in EDT time to prevent confusion due to time zone crossing. See the THY2469 flight status page for this flight to view local times or setup timezone preferences in your user account.

Time Position Orientation Groundspeed Altitude Reporting Facility
EDT Latitude Longitude Course Direction KTS MPH feet Rate Location/Type
01:17PM 37.5353 34.4597 311° West  Level Estimated
01:18PM 37.5902 34.3769 310° West  Level Estimated
01:19PM 37.6452 34.2941 310° West  Level Estimated
01:20PM 37.7001 34.2111 310° West  Level Estimated
01:21PM 37.7549 34.1280 310° West  Level Estimated
01:22PM 37.8096 34.0448 310° West  Level Estimated
01:23PM 37.8643 33.9614 310° West  Level Estimated
01:24PM 37.9190 33.8780 310° West  Level Estimated
01:25PM 37.9736 33.7944 310° West  Level Estimated
01:26PM 38.0281 33.7106 310° West  Level Estimated
01:27PM 38.0826 33.6268 310° West  Level Estimated
01:28PM 38.1370 33.5428 309° West  Level Estimated
01:29PM 38.1913 33.4587 309° West  Level Estimated
01:30PM 38.2456 33.3745 309° West  Level Estimated
01:31PM 38.2999 33.2901 309° West  Level Estimated
01:32PM 38.3540 33.2057 309° West  Level Estimated
01:33PM 38.4081 33.1211 309° West  Level Estimated
01:34PM 38.4622 33.0364 309° West  Level Estimated
01:35PM 38.5162 32.9515 309° West  Level Estimated
01:36PM 38.5701 32.8665 309° West  Level Estimated
01:37PM 38.6239 32.7814 309° West  Level Estimated
01:38PM 38.6777 32.6962 309° West  Level Estimated
01:39PM 38.7315 32.6108 309° West  Level Estimated
01:40PM 38.7851 32.5253 309° West  Level Estimated
01:41PM 38.8387 32.4397 309° West  Level Estimated
01:42PM 38.8923 32.3539 309° West  Level Estimated
01:43PM 38.9458 32.2681 309° West  Level Estimated
01:44PM 38.9992 32.1820 309° West  Level Estimated
01:45PM 39.0526 32.0959 309° West  Level Estimated
01:46PM 39.1059 32.0096 309° West  Level Estimated
01:47PM 39.1591 31.9232 308° West  Level Estimated
01:48PM 39.2123 31.8367 308° West  Level Estimated
01:49PM 39.2654 31.7500 308° West  Level Estimated
01:50PM 39.3184 31.6633 308° West  Level Estimated
01:51PM 39.3714 31.5763 308° West  Level Estimated
01:52PM 39.4243 31.4893 308° West  Level Estimated
01:53PM 39.4772 31.4021 308° West  Level Estimated
01:54PM 39.5299 31.3148 308° West  Level Estimated
01:55PM 39.5827 31.2273 308° West  Level Estimated
01:56PM 39.6353 31.1397 308° West  Level Estimated
01:57PM 39.6879 31.0520 308° West  Level Estimated
01:58PM 39.7404 30.9641 308° West  Level Estimated
01:59PM 39.7929 30.8761 308° West  Level Estimated
02:00PM 39.8452 30.7880 308° West  Level Estimated
02:01PM 39.8976 30.6998 308° West  Level Estimated
02:02PM 39.9498 30.6114 308° West  Level Estimated
02:03PM 40.0020 30.5228 308° West  Level Estimated
02:04PM 40.0541 30.4342 308° West  Level Estimated
02:05PM 40.1062 30.3454 307° West  Level Estimated
02:06PM 40.1581 30.2564 307° West  Level Estimated
02:07PM 40.2101 30.1674 307° West  Level Estimated
02:08PM 40.2619 30.0782 307° West  Level Estimated
02:09PM 40.3137 29.9888 307° West  Level Estimated
02:10PM 40.3654 29.8993 307° West  Level Estimated
02:11PM 40.4170 29.8097 307° West  Level Estimated
02:12PM 40.4686 29.7200 307° West  Level Estimated
02:13PM 40.5201 29.6301 307° West  Level Estimated
02:14PM 40.5715 29.5400 307° West  Level Estimated
02:15PM 40.6229 29.4499 307° West  Level Estimated
02:16PM 40.6742 29.3596 307° West  Level Estimated
02:17PM 40.7254 29.2691 307° West  Level Estimated
02:18PM 40.7766 29.1785 307° West  Level Estimated
02:19PM 40.8276 29.0878 307° West  Level Estimated
02:20PM 40.8786 28.9969 307° West  Level Estimated
02:21PM 40.9296 28.9059 307° West  Level Estimated
02:22PM 40.9769 28.8211 306° West  Level Estimated
02:23PM 40.9769 28.8211 21° North  Level Estimated
02:24PM 40.9769 28.8211 21° North  Level Estimated
02:25PM 40.9769 28.8211 21° North  Level Estimated
02:26PM 40.9769 28.8211 21° North  Level Estimated
02:27PM 40.9769 28.8211 21° North  Level Estimated
02:28PM 40.9769 28.8211 21° North  Level Estimated
02:29PM 40.9769 28.8211 21° North  Level Estimated
02:30PM 40.9769 28.8211 21° North  Level Estimated
02:31PM 40.9769 28.8211 21° North  Level Estimated
02:32PM 40.9769 28.8211 21° North  Level Estimated
02:33PM 40.9769 28.8211 21° North  Level Estimated
02:34PM 40.9769 28.8211 21° North  Level Estimated